createdAt,value
2024-03-27T00:01:39.917Z,78.12
2024-03-27T00:04:10.567Z,78.00
2024-03-27T00:06:41.177Z,77.90
2024-03-27T00:09:11.264Z,77.87
2024-03-27T00:11:41.518Z,78.07
2024-03-27T00:14:12.174Z,77.94
2024-03-27T00:16:42.880Z,77.74
2024-03-27T00:19:13.662Z,77.98
2024-03-27T00:21:43.994Z,82.80
2024-03-27T00:24:14.622Z,79.03
2024-03-27T00:26:45.208Z,78.83
2024-03-27T00:29:15.629Z,78.73
2024-03-27T00:31:45.881Z,78.89
2024-03-27T00:34:16.568Z,78.50
2024-03-27T00:36:47.117Z,78.98
2024-03-27T00:39:17.768Z,79.03
2024-03-27T00:41:48.016Z,79.16
2024-03-27T00:44:18.656Z,78.96
2024-03-27T00:46:49.246Z,79.10
2024-03-27T00:49:19.900Z,78.87
2024-03-27T00:51:50.215Z,79.20
2024-03-27T00:54:20.595Z,79.00
2024-03-27T00:56:51.397Z,79.13
2024-03-27T00:59:22.041Z,79.01
2024-03-27T01:01:52.361Z,79.09
2024-03-27T01:04:23.020Z,78.99
2024-03-27T01:06:53.616Z,78.88
2024-03-27T01:09:24.302Z,78.70
2024-03-27T01:11:54.866Z,78.66
2024-03-27T01:14:25.498Z,78.37
2024-03-27T01:16:56.047Z,78.03
2024-03-27T01:19:26.702Z,78.08
2024-03-27T01:21:57.002Z,78.09
2024-03-27T01:24:27.667Z,78.14
2024-03-27T01:26:57.971Z,78.10
2024-03-27T01:29:28.282Z,78.07
2024-03-27T01:31:58.593Z,77.99
2024-03-27T01:34:29.239Z,77.94
2024-03-27T01:36:59.316Z,77.89
2024-03-27T01:39:30.219Z,77.90
2024-03-27T01:42:00.814Z,78.13
2024-03-27T01:44:31.439Z,78.13
2024-03-27T01:47:02.064Z,78.22
2024-03-27T01:49:32.373Z,78.18
2024-03-27T01:52:02.975Z,78.31
2024-03-27T01:54:33.658Z,78.30
2024-03-27T01:57:04.239Z,78.34
2024-03-27T01:59:34.592Z,78.28
2024-03-27T02:02:04.971Z,78.28
2024-03-27T02:04:35.579Z,78.07
2024-03-27T02:07:06.206Z,78.09
2024-03-27T02:09:37.112Z,78.14
2024-03-27T02:12:07.668Z,78.24
2024-03-27T02:14:38.306Z,78.34
2024-03-27T02:17:16.421Z,78.52
2024-03-27T02:19:39.643Z,78.33
2024-03-27T02:22:10.152Z,78.24
2024-03-27T02:24:40.807Z,78.32
2024-03-27T02:27:11.425Z,78.30
2024-03-27T02:29:42.030Z,78.37
2024-03-27T02:32:12.860Z,78.35
2024-03-27T02:34:43.525Z,78.36
2024-03-27T02:37:14.130Z,78.42
2024-03-27T02:39:44.297Z,78.31
2024-03-27T02:42:14.844Z,78.57
2024-03-27T02:44:45.143Z,78.78
2024-03-27T02:47:15.269Z,78.73
2024-03-27T02:49:45.870Z,78.63
2024-03-27T02:52:15.853Z,78.57
2024-03-27T02:54:46.557Z,78.83
2024-03-27T02:57:16.840Z,79.12
2024-03-27T02:59:47.490Z,79.22
2024-03-27T03:02:18.085Z,79.17
2024-03-27T03:04:48.742Z,79.26
2024-03-27T03:07:19.651Z,79.11
2024-03-27T03:09:50.194Z,79.10
2024-03-27T03:12:20.781Z,78.86
2024-03-27T03:14:51.489Z,78.82
2024-03-27T03:17:22.027Z,78.81
2024-03-27T03:19:52.652Z,78.96
2024-03-27T03:22:23.261Z,78.99
2024-03-27T03:24:53.894Z,79.32
2024-03-27T03:27:24.501Z,79.37
2024-03-27T03:29:55.127Z,79.30
2024-03-27T03:32:25.739Z,79.31
2024-03-27T03:34:56.375Z,79.22
2024-03-27T03:37:26.960Z,79.30
2024-03-27T03:39:57.623Z,78.96
2024-03-27T03:42:27.977Z,79.10
2024-03-27T03:44:58.256Z,79.19
2024-03-27T03:47:28.881Z,79.32
2024-03-27T03:49:59.494Z,79.30
2024-03-27T03:52:30.132Z,79.28
2024-03-27T03:55:00.811Z,79.24
2024-03-27T03:57:30.997Z,79.14
2024-03-27T04:00:01.583Z,79.30
2024-03-27T04:02:32.072Z,78.99
2024-03-27T04:05:02.286Z,79.15
2024-03-27T04:07:32.920Z,79.49
2024-03-27T04:10:03.500Z,79.42
2024-03-27T04:12:34.146Z,79.43
2024-03-27T04:15:04.370Z,79.59
2024-03-27T04:17:35.066Z,79.47
2024-03-27T04:20:05.615Z,79.58
2024-03-27T04:22:36.022Z,79.54
2024-03-27T04:25:06.400Z,80.23
2024-03-27T04:27:37.029Z,80.33
2024-03-27T04:30:07.270Z,80.80
2024-03-27T04:32:37.886Z,80.62
2024-03-27T04:35:08.797Z,80.76
2024-03-27T04:37:38.852Z,80.53
2024-03-27T04:40:09.605Z,80.31
2024-03-27T04:42:40.074Z,80.28
2024-03-27T04:45:10.478Z,80.17
2024-03-27T04:47:40.797Z,79.96
2024-03-27T04:50:11.051Z,79.72
2024-03-27T04:52:41.710Z,79.57
2024-03-27T04:55:12.045Z,79.56
2024-03-27T04:57:42.635Z,79.51
2024-03-27T05:00:13.381Z,79.22
2024-03-27T05:02:43.888Z,79.44
2024-03-27T05:05:14.532Z,79.50
2024-03-27T05:07:45.146Z,79.38
2024-03-27T05:10:15.864Z,79.58
2024-03-27T05:12:46.043Z,79.78
2024-03-27T05:15:16.690Z,79.74
2024-03-27T05:17:47.303Z,79.51
2024-03-27T05:20:17.485Z,79.68
2024-03-27T05:22:47.670Z,79.57
2024-03-27T05:25:17.825Z,79.60
2024-03-27T05:27:48.401Z,79.51
2024-03-27T05:30:19.065Z,79.77
2024-03-27T05:32:49.703Z,79.76
2024-03-27T05:35:20.399Z,79.52
2024-03-27T05:37:51.058Z,79.69
2024-03-27T05:40:21.663Z,79.64
2024-03-27T05:42:52.355Z,79.87
2024-03-27T05:45:22.722Z,80.06
2024-03-27T05:47:53.390Z,79.98
2024-03-27T05:50:24.078Z,80.14
2024-03-27T05:52:54.764Z,80.15
2024-03-27T05:55:25.612Z,80.01
2024-03-27T05:57:56.172Z,79.96
2024-03-27T06:00:26.632Z,80.04
2024-03-27T06:02:56.626Z,80.10
2024-03-27T06:05:27.560Z,80.25
2024-03-27T06:07:58.211Z,80.17
2024-03-27T06:10:28.941Z,80.71
2024-03-27T06:12:59.319Z,81.26
2024-03-27T06:15:29.944Z,80.88
2024-03-27T06:18:00.604Z,80.82
2024-03-27T06:20:31.277Z,80.88
2024-03-27T06:23:01.640Z,80.98
2024-03-27T06:25:32.061Z,81.17
2024-03-27T06:28:02.022Z,81.26
2024-03-27T06:30:32.667Z,90.03
2024-03-27T06:33:02.685Z,84.02
2024-03-27T06:35:33.027Z,82.80
2024-03-27T06:38:03.658Z,82.47
2024-03-27T06:40:34.042Z,82.58
2024-03-27T06:43:04.291Z,83.42
2024-03-27T06:45:46.357Z,82.33
2024-03-27T06:48:05.099Z,82.67
2024-03-27T06:50:35.329Z,82.61
2024-03-27T06:53:05.967Z,82.91
2024-03-27T06:55:36.488Z,82.92
2024-03-27T06:58:07.075Z,83.27
2024-03-27T07:00:37.632Z,82.63
2024-03-27T07:03:07.977Z,82.56
2024-03-27T07:05:38.647Z,82.83
2024-03-27T07:08:09.266Z,82.74
2024-03-27T07:10:39.598Z,82.56
2024-03-27T07:13:10.064Z,82.20
2024-03-27T07:15:39.968Z,82.02
2024-03-27T07:18:10.585Z,82.02
2024-03-27T07:20:40.932Z,82.30
2024-03-27T07:23:11.270Z,82.03
2024-03-27T07:25:41.925Z,82.14
2024-03-27T07:28:12.695Z,81.73
2024-03-27T07:30:46.836Z,82.03
2024-03-27T07:33:13.351Z,81.15
2024-03-27T07:35:44.178Z,81.04
2024-03-27T07:38:14.491Z,80.28
2024-03-27T07:40:45.111Z,80.50
2024-03-27T07:43:15.461Z,79.68
2024-03-27T07:45:46.299Z,79.13
2024-03-27T07:48:16.570Z,78.68
2024-03-27T07:50:46.912Z,79.50
2024-03-27T07:53:17.612Z,79.18
2024-03-27T07:55:47.740Z,79.07
2024-03-27T07:58:18.306Z,80.05
2024-03-27T08:00:48.994Z,79.94
2024-03-27T08:03:19.283Z,80.01
2024-03-27T08:05:49.543Z,80.29
2024-03-27T08:08:20.344Z,81.05
2024-03-27T08:10:50.696Z,81.03
2024-03-27T08:13:21.237Z,80.78
2024-03-27T08:15:51.850Z,80.89
2024-03-27T08:18:22.426Z,80.76
2024-03-27T08:20:52.824Z,80.15
2024-03-27T08:23:23.262Z,80.51
2024-03-27T08:25:53.880Z,81.45
2024-03-27T08:28:24.064Z,80.93
2024-03-27T08:30:54.431Z,81.21
2024-03-27T08:33:24.958Z,80.87
2024-03-27T08:35:55.496Z,80.81
2024-03-27T08:38:26.039Z,81.01
2024-03-27T08:40:56.449Z,80.62
2024-03-27T08:43:26.874Z,80.22
2024-03-27T08:45:57.454Z,80.60
2024-03-27T08:48:27.642Z,80.84
2024-03-27T08:50:58.222Z,80.19
2024-03-27T08:53:28.737Z,81.04
2024-03-27T08:55:59.327Z,80.57
2024-03-27T08:58:30.119Z,80.75
2024-03-27T09:01:00.509Z,80.81
2024-03-27T09:03:30.944Z,80.89
2024-03-27T09:06:01.561Z,80.66
2024-03-27T09:08:31.977Z,80.61
2024-03-27T09:11:02.554Z,80.71
2024-03-27T09:13:33.027Z,80.46
2024-03-27T09:16:03.571Z,80.11
2024-03-27T09:18:33.733Z,80.78
2024-03-27T09:21:04.281Z,81.01
2024-03-27T09:23:34.822Z,80.41
2024-03-27T09:26:05.337Z,80.95
2024-03-27T09:28:35.825Z,80.18
2024-03-27T09:31:06.071Z,80.26
2024-03-27T09:33:36.282Z,80.39
2024-03-27T09:36:06.865Z,80.61
2024-03-27T09:38:37.279Z,80.86
2024-03-27T09:41:07.455Z,79.91
2024-03-27T09:43:37.934Z,80.32
2024-03-27T09:46:08.418Z,80.68
2024-03-27T09:48:39.008Z,80.14
2024-03-27T09:51:09.386Z,79.83
2024-03-27T09:53:39.868Z,80.48
2024-03-27T09:56:10.496Z,81.08
2024-03-27T09:58:40.827Z,80.40
2024-03-27T10:01:11.480Z,80.35
2024-03-27T10:03:41.983Z,80.37
2024-03-27T10:06:12.520Z,80.07
2024-03-27T10:08:43.091Z,80.01
2024-03-27T10:11:13.730Z,79.27
2024-03-27T10:13:43.945Z,79.29
2024-03-27T10:16:14.728Z,80.18
2024-03-27T10:18:44.679Z,80.61
2024-03-27T10:21:14.891Z,81.20
2024-03-27T10:23:45.060Z,80.19
2024-03-27T10:26:15.384Z,79.16
2024-03-27T10:28:45.924Z,79.37
2024-03-27T10:31:16.168Z,79.21
2024-03-27T10:33:46.475Z,78.78
2024-03-27T10:36:17.493Z,78.93
2024-03-27T10:38:47.651Z,80.05
2024-03-27T10:41:18.127Z,80.87
2024-03-27T10:43:48.845Z,80.48
2024-03-27T10:46:19.165Z,80.11
2024-03-27T10:48:49.620Z,80.39
2024-03-27T10:51:20.075Z,80.78
2024-03-27T10:53:50.526Z,80.56
2024-03-27T10:56:21.114Z,80.17
2024-03-27T10:58:51.847Z,79.87
2024-03-27T11:01:22.009Z,79.80
2024-03-27T11:03:52.227Z,79.67
2024-03-27T11:06:22.284Z,80.23
2024-03-27T11:08:53.076Z,80.41
2024-03-27T11:11:23.788Z,80.43
2024-03-27T11:13:54.243Z,80.86
2024-03-27T11:16:24.771Z,80.39
2024-03-27T11:18:55.147Z,81.39
2024-03-27T11:21:25.633Z,81.24
2024-03-27T11:23:56.085Z,80.87
2024-03-27T11:26:26.575Z,80.66
2024-03-27T11:28:56.996Z,80.27
2024-03-27T11:31:27.471Z,80.27
2024-03-27T11:33:57.956Z,80.26
2024-03-27T11:36:28.379Z,80.41
2024-03-27T11:38:58.379Z,80.20
2024-03-27T11:41:28.655Z,79.91
2024-03-27T11:43:58.980Z,80.57
2024-03-27T11:46:29.731Z,81.04
2024-03-27T11:49:00.090Z,82.14
2024-03-27T11:51:30.427Z,81.64
2024-03-27T11:54:00.441Z,82.86
2024-03-27T11:56:31.032Z,82.83
2024-03-27T11:59:01.084Z,84.80
2024-03-27T12:01:31.703Z,83.51
2024-03-27T12:04:02.089Z,83.00
2024-03-27T12:06:32.426Z,82.45
2024-03-27T12:09:03.073Z,82.58
2024-03-27T12:11:33.389Z,82.94
2024-03-27T12:14:03.452Z,82.49
2024-03-27T12:16:33.729Z,82.91
2024-03-27T12:19:04.188Z,82.65
2024-03-27T12:21:34.693Z,82.41
2024-03-27T12:24:05.171Z,84.66
2024-03-27T12:26:35.820Z,84.52
2024-03-27T12:29:06.245Z,84.89
2024-03-27T12:31:36.649Z,84.20
2024-03-27T12:34:07.145Z,83.83
2024-03-27T12:36:37.623Z,83.90
2024-03-27T12:39:07.629Z,83.93
2024-03-27T12:41:37.952Z,83.80
2024-03-27T12:44:08.214Z,84.33
2024-03-27T12:46:38.381Z,84.02
2024-03-27T12:49:09.039Z,83.93
2024-03-27T12:51:39.408Z,83.03
2024-03-27T12:54:10.528Z,82.27
2024-03-27T12:56:40.617Z,82.19
2024-03-27T12:59:10.669Z,81.86
2024-03-27T13:01:40.789Z,81.16
2024-03-27T13:04:10.760Z,81.03
2024-03-27T13:06:40.925Z,81.57
2024-03-27T13:09:11.719Z,82.16
2024-03-27T13:11:42.399Z,81.49
2024-03-27T13:14:12.996Z,81.18
2024-03-27T13:16:43.864Z,80.60
2024-03-27T13:19:14.149Z,80.05
2024-03-27T13:21:44.694Z,79.19
2024-03-27T13:24:15.312Z,79.27
2024-03-27T13:26:45.718Z,79.06
2024-03-27T13:29:15.728Z,79.37
2024-03-27T13:31:46.428Z,79.62
2024-03-27T13:34:16.968Z,79.29
2024-03-27T13:36:47.326Z,79.20
2024-03-27T13:39:17.341Z,78.34
2024-03-27T13:41:47.432Z,79.14
2024-03-27T13:44:18.046Z,78.83
2024-03-27T13:46:48.165Z,79.00
2024-03-27T13:49:18.393Z,78.20
2024-03-27T13:51:49.150Z,78.75
2024-03-27T13:54:19.289Z,78.73
2024-03-27T13:56:49.973Z,78.76
2024-03-27T13:59:22.283Z,79.00
2024-03-27T14:01:50.680Z,79.57
2024-03-27T14:04:21.512Z,78.66
2024-03-27T14:06:52.326Z,78.96
2024-03-27T14:09:22.466Z,78.51
2024-03-27T14:11:52.904Z,78.89
2024-03-27T14:14:23.546Z,78.91
2024-03-27T14:16:53.831Z,79.08
2024-03-27T14:19:24.340Z,80.30
2024-03-27T14:21:54.927Z,79.95
2024-03-27T14:24:25.340Z,80.97
2024-03-27T14:26:55.892Z,80.73
2024-03-27T14:29:26.136Z,80.17
2024-03-27T14:31:56.630Z,80.64
2024-03-27T14:34:27.126Z,80.55
2024-03-27T14:36:57.656Z,80.74
2024-03-27T14:39:28.183Z,80.85
2024-03-27T14:41:58.697Z,80.61
2024-03-27T14:44:29.198Z,80.82
2024-03-27T14:46:59.733Z,80.71
2024-03-27T14:49:30.209Z,80.44
2024-03-27T14:52:00.444Z,79.91
2024-03-27T14:54:30.928Z,79.58
2024-03-27T14:57:01.117Z,79.73
2024-03-27T14:59:31.608Z,79.92
2024-03-27T15:02:02.154Z,79.49
2024-03-27T15:04:32.301Z,79.49
2024-03-27T15:07:02.789Z,79.29
2024-03-27T15:09:41.099Z,80.01
2024-03-27T15:12:03.815Z,79.61
2024-03-27T15:14:35.498Z,79.90
2024-03-27T15:17:04.510Z,79.85
2024-03-27T15:19:34.988Z,79.91
2024-03-27T15:22:05.524Z,79.70
2024-03-27T15:24:35.994Z,79.29
2024-03-27T15:27:06.175Z,79.59
2024-03-27T15:29:36.331Z,79.16
2024-03-27T15:32:06.833Z,79.29
2024-03-27T15:34:37.416Z,79.43
2024-03-27T15:37:07.813Z,79.74
2024-03-27T15:39:38.233Z,79.20
2024-03-27T15:42:08.725Z,79.64
2024-03-27T15:44:39.166Z,79.49
2024-03-27T15:47:09.652Z,79.46
2024-03-27T15:49:40.066Z,79.41
2024-03-27T15:52:10.560Z,79.72
2024-03-27T15:54:41.123Z,80.05
2024-03-27T15:57:11.236Z,80.29
2024-03-27T15:59:44.503Z,80.45
2024-03-27T16:02:12.151Z,80.77
2024-03-27T16:04:49.738Z,81.10
2024-03-27T16:07:13.045Z,81.84
2024-03-27T16:09:43.595Z,81.95
2024-03-27T16:12:14.038Z,82.30
2024-03-27T16:14:44.830Z,82.40
2024-03-27T16:17:15.500Z,83.16
2024-03-27T16:19:45.933Z,82.97
2024-03-27T16:22:16.670Z,83.48
2024-03-27T16:24:46.572Z,83.73
2024-03-27T16:27:17.182Z,83.12
2024-03-27T16:29:47.602Z,83.26
2024-03-27T16:32:18.070Z,83.42
2024-03-27T16:34:48.514Z,83.53
2024-03-27T16:37:19.000Z,83.80
2024-03-27T16:39:49.452Z,84.40
2024-03-27T16:42:19.922Z,83.96
2024-03-27T16:44:50.364Z,84.00
2024-03-27T16:47:20.882Z,84.18
2024-03-27T16:49:51.300Z,84.35
2024-03-27T16:52:21.783Z,85.00
2024-03-27T16:54:52.215Z,85.37
2024-03-27T16:57:22.702Z,85.44
2024-03-27T16:59:53.156Z,85.85
2024-03-27T17:02:23.652Z,86.34
2024-03-27T17:04:54.095Z,86.01
2024-03-27T17:07:24.587Z,86.03
2024-03-27T17:09:55.065Z,85.94
2024-03-27T17:12:25.603Z,86.26
2024-03-27T17:14:56.068Z,86.31
2024-03-27T17:17:26.353Z,86.92
2024-03-27T17:19:56.420Z,87.35
2024-03-27T17:22:26.917Z,87.64
2024-03-27T17:24:57.547Z,87.85
2024-03-27T17:27:27.986Z,87.90
2024-03-27T17:29:58.379Z,87.88
2024-03-27T17:32:28.935Z,87.89
2024-03-27T17:34:59.358Z,87.75
2024-03-27T17:37:29.888Z,88.10
2024-03-27T17:40:00.413Z,88.41
2024-03-27T17:42:30.880Z,88.30
2024-03-27T17:45:01.356Z,88.13
2024-03-27T17:47:31.967Z,88.18
2024-03-27T17:50:02.332Z,88.41
2024-03-27T17:52:32.893Z,88.45
2024-03-27T17:55:03.352Z,88.33
2024-03-27T17:57:33.874Z,87.88
2024-03-27T18:00:04.485Z,87.89
2024-03-27T18:02:34.864Z,88.22
2024-03-27T18:05:05.354Z,87.88
2024-03-27T18:07:35.595Z,88.07
2024-03-27T18:10:06.086Z,87.89
2024-03-27T18:12:36.590Z,88.14
2024-03-27T18:15:07.053Z,88.11
2024-03-27T18:17:37.583Z,87.97
2024-03-27T18:20:08.305Z,88.11
2024-03-27T18:22:38.305Z,88.19
2024-03-27T18:25:08.881Z,88.11
2024-03-27T18:27:39.372Z,88.14
2024-03-27T18:30:09.812Z,88.20
2024-03-27T18:32:40.326Z,88.00
2024-03-27T18:35:10.826Z,87.81
2024-03-27T18:37:41.350Z,88.20
2024-03-27T18:40:11.836Z,86.82
2024-03-27T18:42:42.413Z,86.18
2024-03-27T18:45:12.848Z,86.35
2024-03-27T18:47:43.377Z,85.53
2024-03-27T18:50:13.918Z,86.39
2024-03-27T18:52:44.442Z,86.53
2024-03-27T18:55:14.957Z,87.28
2024-03-27T18:57:45.538Z,87.18
2024-03-27T19:00:15.846Z,87.07
2024-03-27T19:02:46.225Z,88.41
2024-03-27T19:05:16.882Z,89.33
2024-03-27T19:07:47.272Z,87.93
2024-03-27T19:10:17.595Z,88.40
2024-03-27T19:12:48.144Z,88.37
2024-03-27T19:15:18.677Z,88.45
2024-03-27T19:17:48.801Z,87.86
2024-03-27T19:20:19.481Z,87.99
2024-03-27T19:22:49.734Z,97.59
2024-03-27T19:25:19.962Z,92.08
2024-03-27T19:27:50.575Z,90.86
2024-03-27T19:30:21.080Z,89.86
2024-03-27T19:32:51.646Z,89.24
2024-03-27T19:35:22.305Z,88.68
2024-03-27T19:37:52.763Z,88.69
2024-03-27T19:40:23.324Z,88.03
2024-03-27T19:42:53.897Z,88.41
2024-03-27T19:45:24.525Z,87.64
2024-03-27T19:47:55.093Z,87.52
2024-03-27T19:50:25.543Z,87.21
2024-03-27T19:52:56.183Z,87.74
2024-03-27T19:55:26.685Z,87.50
2024-03-27T19:57:57.278Z,87.32
2024-03-27T20:00:27.845Z,87.14
2024-03-27T20:02:58.416Z,86.71
2024-03-27T20:05:28.944Z,86.99
2024-03-27T20:07:59.614Z,87.28
2024-03-27T20:10:30.096Z,86.63
2024-03-27T20:13:00.772Z,88.16
2024-03-27T20:15:31.277Z,87.40
2024-03-27T20:18:01.864Z,87.35
2024-03-27T20:20:32.396Z,87.45
2024-03-27T20:23:03.006Z,87.72
2024-03-27T20:25:33.560Z,87.41
2024-03-27T20:28:04.241Z,87.42
2024-03-27T20:30:34.429Z,87.17
2024-03-27T20:33:05.018Z,87.30
2024-03-27T20:35:35.594Z,87.16
2024-03-27T20:38:06.195Z,87.45
2024-03-27T20:40:36.781Z,86.73
2024-03-27T20:43:07.476Z,86.66
2024-03-27T20:45:37.938Z,86.66
2024-03-27T20:48:08.554Z,86.86
2024-03-27T20:50:39.126Z,86.48
2024-03-27T20:53:09.734Z,85.93
2024-03-27T20:55:40.297Z,85.66
2024-03-27T20:58:10.616Z,86.29
2024-03-27T21:00:41.136Z,86.35
2024-03-27T21:03:11.748Z,86.01
2024-03-27T21:05:42.318Z,86.48
2024-03-27T21:08:12.925Z,86.26
2024-03-27T21:10:43.515Z,86.52
2024-03-27T21:13:14.141Z,86.26
2024-03-27T21:15:44.702Z,85.93
2024-03-27T21:18:15.290Z,86.11
2024-03-27T21:20:45.873Z,85.82
2024-03-27T21:23:15.921Z,86.11
2024-03-27T21:25:46.144Z,86.74
2024-03-27T21:28:16.787Z,87.06
2024-03-27T21:30:47.065Z,87.62
2024-03-27T21:33:17.690Z,87.88
2024-03-27T21:35:48.257Z,87.55
2024-03-27T21:38:18.893Z,87.80
2024-03-27T21:40:49.703Z,87.86
2024-03-27T21:43:19.851Z,87.72
2024-03-27T21:45:50.418Z,87.76
2024-03-27T21:48:21.019Z,87.82
2024-03-27T21:50:51.280Z,87.86
2024-03-27T21:53:21.929Z,88.04
2024-03-27T21:55:52.236Z,87.58
2024-03-27T21:58:22.858Z,87.92
2024-03-27T22:00:53.168Z,87.90
2024-03-27T22:03:23.903Z,88.13
2024-03-27T22:05:54.022Z,87.71
2024-03-27T22:08:24.382Z,87.95
2024-03-27T22:10:54.942Z,87.78
2024-03-27T22:13:25.852Z,88.10
2024-03-27T22:15:56.441Z,87.13
2024-03-27T22:18:27.009Z,87.50
2024-03-27T22:23:27.662Z,87.63
2024-03-27T22:25:58.255Z,87.08
2024-03-27T22:28:28.915Z,88.07
2024-03-27T22:30:59.593Z,87.44
2024-03-27T22:33:29.561Z,87.88
2024-03-27T22:35:59.820Z,87.93
2024-03-27T22:38:30.463Z,87.99
2024-03-27T22:41:00.778Z,88.27
2024-03-27T22:43:31.418Z,88.48
2024-03-27T22:46:01.955Z,88.58
2024-03-27T22:48:32.592Z,88.45
2024-03-27T22:51:02.852Z,88.44
2024-03-27T22:53:33.368Z,88.56
2024-03-27T22:56:03.482Z,88.36
2024-03-27T22:58:34.413Z,88.40
2024-03-27T23:01:05.232Z,88.06
2024-03-27T23:03:35.884Z,88.70
2024-03-27T23:06:06.517Z,88.57
2024-03-27T23:08:37.379Z,89.02
2024-03-27T23:11:07.631Z,88.82
2024-03-27T23:13:37.717Z,88.64
2024-03-27T23:16:07.784Z,88.29
2024-03-27T23:18:38.358Z,88.68
2024-03-27T23:21:08.625Z,88.73
2024-03-27T23:23:39.251Z,88.82
2024-03-27T23:26:09.308Z,89.03
2024-03-27T23:28:39.492Z,88.59
2024-03-27T23:31:09.818Z,88.67
2024-03-27T23:33:40.454Z,88.39
2024-03-27T23:36:10.958Z,88.63
2024-03-27T23:38:41.881Z,88.31
2024-03-27T23:41:12.432Z,87.93
2024-03-27T23:43:43.041Z,87.99
2024-03-27T23:46:13.674Z,87.78
2024-03-27T23:48:44.040Z,88.02
2024-03-27T23:51:14.306Z,87.90
2024-03-27T23:53:44.682Z,87.54
2024-03-27T23:56:15.455Z,87.43
2024-03-27T23:58:45.823Z,88.02
